createdAt,value
2023-04-15T00:00:04.274Z,2.90
2023-04-15T00:02:49.510Z,3.30
2023-04-15T00:05:26.314Z,3.10
2023-04-15T00:08:02.360Z,2.80
2023-04-15T00:10:38.654Z,2.90
2023-04-15T00:13:15.541Z,2.60
2023-04-15T00:15:52.437Z,2.60
2023-04-15T00:18:30.104Z,2.60
2023-04-15T00:21:07.550Z,2.40
2023-04-15T00:23:43.396Z,2.40
2023-04-15T00:26:20.395Z,2.70
2023-04-15T00:28:57.012Z,2.40
2023-04-15T00:31:32.390Z,2.20
2023-04-15T00:34:09.911Z,2.60
2023-04-15T00:36:44.828Z,2.30
2023-04-15T00:39:21.252Z,2.40
2023-04-15T00:41:58.403Z,2.30
2023-04-15T00:44:36.586Z,2.30
2023-04-15T00:47:14.059Z,2.50
2023-04-15T00:49:50.038Z,2.40
2023-04-15T00:52:27.820Z,2.00
2023-04-15T00:55:04.888Z,2.30
2023-04-15T00:57:41.432Z,2.40
2023-04-15T01:00:21.207Z,2.30
2023-04-15T01:02:57.280Z,2.30
2023-04-15T01:05:34.818Z,2.40
2023-04-15T01:08:12.442Z,2.30
2023-04-15T01:10:48.930Z,2.40
2023-04-15T01:13:25.087Z,2.60
2023-04-15T01:16:01.748Z,2.30
2023-04-15T01:18:37.702Z,2.00
2023-04-15T01:21:15.091Z,2.20
2023-04-15T01:23:51.782Z,2.00
2023-04-15T01:26:29.082Z,2.10
2023-04-15T01:29:05.017Z,2.30
2023-04-15T01:31:42.366Z,2.20
2023-04-15T01:34:18.368Z,2.10
2023-04-15T01:36:54.597Z,2.00
2023-04-15T01:39:32.316Z,2.00
2023-04-15T01:42:08.434Z,2.00
2023-04-15T01:44:44.493Z,2.00
2023-04-15T01:47:20.857Z,2.00
2023-04-15T01:49:57.213Z,2.00
2023-04-15T01:52:32.990Z,2.30
2023-04-15T01:55:11.916Z,1.90
2023-04-15T01:57:48.970Z,2.10
2023-04-15T02:00:27.255Z,2.10
2023-04-15T02:03:03.452Z,2.20
2023-04-15T02:05:39.353Z,1.90
2023-04-15T02:08:15.805Z,2.10
2023-04-15T02:10:52.087Z,2.10
2023-04-15T02:13:27.988Z,2.00
2023-04-15T02:16:05.460Z,1.80
2023-04-15T02:18:41.734Z,2.10
2023-04-15T02:21:19.332Z,2.00
2023-04-15T02:23:56.740Z,2.00
2023-04-15T02:26:33.950Z,1.90
2023-04-15T02:29:10.060Z,2.00
2023-04-15T02:31:46.418Z,2.00
2023-04-15T02:34:27.681Z,2.30
2023-04-15T02:37:06.085Z,1.70
2023-04-15T02:39:45.283Z,2.20
2023-04-15T02:42:21.894Z,1.80
2023-04-15T02:44:58.472Z,1.90
2023-04-15T02:47:38.447Z,1.80
2023-04-15T02:50:18.343Z,2.10
2023-04-15T02:52:54.410Z,2.10
2023-04-15T02:55:30.721Z,1.90
2023-04-15T02:58:06.826Z,1.80
2023-04-15T03:00:43.152Z,1.90
2023-04-15T03:03:19.686Z,1.90
2023-04-15T03:05:56.585Z,1.70
2023-04-15T03:08:33.665Z,1.80
2023-04-15T03:11:11.036Z,1.90
2023-04-15T03:13:47.670Z,1.80
2023-04-15T03:16:33.388Z,1.90
2023-04-15T03:19:09.439Z,1.90
2023-04-15T03:21:48.385Z,1.90
2023-04-15T03:24:27.473Z,1.60
2023-04-15T03:27:06.541Z,2.10
2023-04-15T03:29:44.789Z,2.00
2023-04-15T03:32:21.949Z,1.90
2023-04-15T03:34:58.432Z,1.80
2023-04-15T03:37:35.788Z,2.00
2023-04-15T03:40:19.322Z,2.00
2023-04-15T03:42:56.857Z,2.10
2023-04-15T03:45:33.982Z,1.90
2023-04-15T03:48:17.699Z,2.20
2023-04-15T03:50:54.803Z,2.30
2023-04-15T03:53:31.187Z,1.90
2023-04-15T03:56:08.137Z,2.00
2023-04-15T03:58:45.416Z,2.40
2023-04-15T04:01:23.556Z,2.00
2023-04-15T04:03:59.942Z,2.20
2023-04-15T04:06:37.159Z,2.30
2023-04-15T04:09:14.050Z,2.30
2023-04-15T04:11:49.956Z,2.90
2023-04-15T04:14:30.182Z,3.10
2023-04-15T04:17:07.143Z,2.80
2023-04-15T04:19:43.588Z,2.50
2023-04-15T04:22:20.801Z,2.30
2023-04-15T04:24:59.600Z,2.30
2023-04-15T04:27:39.709Z,2.40
2023-04-15T04:30:20.186Z,2.40
2023-04-15T04:35:37.883Z,2.30
2023-04-15T04:38:14.737Z,2.60
2023-04-15T04:40:53.897Z,2.40
2023-04-15T04:43:30.709Z,1.90
2023-04-15T04:46:08.557Z,2.10
2023-04-15T04:48:47.069Z,1.80
2023-04-15T04:51:23.308Z,2.10
2023-04-15T04:54:01.270Z,2.00
2023-04-15T04:56:40.639Z,2.20
2023-04-15T04:59:19.441Z,1.90
2023-04-15T05:01:57.103Z,2.00
2023-04-15T05:04:33.729Z,2.20
2023-04-15T05:07:10.450Z,1.90
2023-04-15T05:09:47.395Z,2.00
2023-04-15T05:12:23.597Z,1.90
2023-04-15T05:15:00.590Z,2.00
2023-04-15T05:17:38.469Z,2.00
2023-04-15T05:20:21.701Z,2.20
2023-04-15T05:22:58.095Z,2.60
2023-04-15T05:25:34.455Z,3.00
2023-04-15T05:28:11.532Z,2.40
2023-04-15T05:30:49.460Z,2.30
2023-04-15T05:33:26.900Z,2.50
2023-04-15T05:36:03.798Z,2.30
2023-04-15T05:38:40.199Z,2.30
2023-04-15T05:41:19.770Z,2.80
2023-04-15T05:43:56.846Z,2.90
2023-04-15T05:46:33.509Z,3.20
2023-04-15T05:49:10.165Z,2.70
2023-04-15T05:51:46.519Z,3.10
2023-04-15T05:54:23.573Z,2.50
2023-04-15T05:57:01.309Z,2.60
2023-04-15T05:59:38.950Z,2.80
2023-04-15T06:02:17.236Z,2.60
2023-04-15T06:04:54.095Z,2.60
2023-04-15T06:07:31.616Z,2.60
2023-04-15T06:10:08.636Z,2.40
2023-04-15T06:12:45.195Z,2.50
2023-04-15T06:15:21.854Z,2.70
2023-04-15T06:17:58.720Z,2.60
2023-04-15T06:20:35.538Z,2.60
2023-04-15T06:23:13.048Z,2.60
2023-04-15T06:25:49.293Z,2.60
2023-04-15T06:28:26.356Z,2.80
2023-04-15T06:31:03.904Z,2.70
2023-04-15T06:33:40.328Z,2.30
2023-04-15T06:36:18.017Z,2.80
2023-04-15T06:38:55.168Z,2.70
2023-04-15T06:41:32.373Z,2.60
2023-04-15T06:44:10.435Z,2.70
2023-04-15T06:46:47.671Z,2.50
2023-04-15T06:49:24.771Z,2.50
2023-04-15T06:52:01.115Z,2.70
2023-04-15T06:54:37.337Z,2.90
2023-04-15T06:57:14.554Z,2.90
2023-04-15T06:59:51.907Z,2.30
2023-04-15T07:02:29.800Z,2.60
2023-04-15T07:05:07.089Z,2.60
2023-04-15T07:07:44.236Z,2.50
2023-04-15T07:10:23.933Z,2.40
2023-04-15T07:13:01.866Z,2.30
2023-04-15T07:15:38.981Z,2.70
2023-04-15T07:18:16.839Z,2.70
2023-04-15T07:20:53.840Z,2.30
2023-04-15T07:23:31.651Z,2.40
2023-04-15T07:26:09.773Z,2.30
2023-04-15T07:28:48.482Z,2.30
2023-04-15T07:31:24.419Z,2.10
2023-04-15T07:34:01.036Z,2.20
2023-04-15T07:36:37.812Z,2.50
2023-04-15T07:39:14.623Z,2.10
2023-04-15T07:41:51.976Z,2.00
2023-04-15T07:44:29.237Z,1.90
2023-04-15T07:47:07.967Z,2.30
2023-04-15T07:49:45.679Z,2.20
2023-04-15T07:52:22.894Z,2.40
2023-04-15T07:54:59.992Z,1.90
2023-04-15T07:57:36.591Z,1.80
2023-04-15T08:00:22.968Z,2.10
2023-04-15T08:03:01.470Z,2.40
2023-04-15T08:05:37.801Z,1.90
2023-04-15T08:08:14.946Z,2.20
2023-04-15T08:10:52.906Z,1.90
2023-04-15T08:13:29.399Z,2.20
2023-04-15T08:16:22.896Z,2.10
2023-04-15T08:19:01.158Z,1.70
2023-04-15T08:21:41.719Z,2.00
2023-04-15T08:24:18.800Z,2.10
2023-04-15T08:26:54.916Z,2.20
2023-04-15T08:29:31.162Z,2.00
2023-04-15T08:32:09.961Z,2.10
2023-04-15T08:34:46.526Z,1.90
2023-04-15T08:37:23.104Z,2.00
2023-04-15T08:39:59.319Z,2.10
2023-04-15T08:42:45.065Z,2.20
2023-04-15T08:45:23.663Z,2.00
2023-04-15T08:48:06.720Z,2.40
2023-04-15T08:50:43.851Z,2.20
2023-04-15T08:53:20.616Z,2.30
2023-04-15T08:56:02.651Z,2.40
2023-04-15T08:58:40.911Z,2.70
2023-04-15T09:01:17.267Z,2.90
2023-04-15T09:03:56.846Z,2.40
2023-04-15T09:06:36.722Z,2.40
2023-04-15T09:09:14.449Z,2.60
2023-04-15T09:11:51.793Z,2.80
2023-04-15T09:14:28.229Z,2.50
2023-04-15T09:17:09.726Z,2.60
2023-04-15T09:19:45.913Z,2.90
2023-04-15T09:22:26.305Z,2.70
2023-04-15T09:25:02.886Z,2.90
2023-04-15T09:27:52.808Z,2.50
2023-04-15T09:30:30.732Z,2.40
2023-04-15T09:33:09.092Z,2.40
2023-04-15T09:35:57.967Z,2.50
2023-04-15T09:38:36.223Z,2.30
2023-04-15T09:41:24.708Z,2.40
2023-04-15T09:44:01.721Z,2.60
2023-04-15T09:46:51.474Z,2.70
2023-04-15T09:49:28.614Z,2.60
2023-04-15T09:52:07.747Z,2.30
2023-04-15T09:54:44.758Z,2.70
2023-04-15T09:57:20.508Z,2.70
2023-04-15T09:59:58.549Z,2.90
2023-04-15T10:02:35.286Z,3.20
2023-04-15T10:05:16.444Z,2.40
2023-04-15T10:07:53.696Z,2.60
2023-04-15T10:10:30.402Z,2.90
2023-04-15T10:13:07.922Z,2.90
2023-04-15T10:15:52.038Z,2.70
2023-04-15T10:18:34.182Z,3.10
2023-04-15T10:21:14.416Z,2.40
2023-04-15T10:23:52.161Z,2.80
2023-04-15T10:26:31.309Z,2.40
2023-04-15T10:29:07.832Z,2.60
2023-04-15T10:31:45.792Z,2.60
2023-04-15T10:34:24.310Z,3.10
2023-04-15T10:37:04.684Z,2.50
2023-04-15T10:40:03.132Z,2.40
2023-04-15T10:42:43.155Z,2.40
2023-04-15T10:45:27.625Z,2.60
2023-04-15T10:48:08.087Z,2.30
2023-04-15T10:50:44.396Z,2.70
2023-04-15T10:53:38.391Z,2.90
2023-04-15T10:56:20.244Z,3.10
2023-04-15T10:58:57.755Z,2.80
2023-04-15T11:02:03.401Z,2.40
2023-04-15T11:05:02.932Z,2.80
2023-04-15T11:07:51.555Z,3.70
2023-04-15T11:10:59.688Z,3.60
2023-04-15T11:13:37.269Z,3.40
2023-04-15T11:16:14.021Z,3.60
2023-04-15T11:18:58.443Z,3.80
2023-04-15T11:21:36.703Z,3.90
2023-04-15T11:24:13.978Z,3.60
2023-04-15T11:26:51.260Z,3.20
2023-04-15T11:29:35.636Z,3.20
2023-04-15T11:32:15.718Z,2.70
2023-04-15T11:34:56.674Z,3.00
2023-04-15T11:37:37.694Z,3.00
2023-04-15T11:40:18.285Z,3.20
2023-04-15T11:43:08.450Z,3.00
2023-04-15T11:45:54.364Z,2.60
2023-04-15T11:48:33.476Z,3.20
2023-04-15T11:51:12.172Z,2.70
2023-04-15T11:53:57.059Z,2.60
2023-04-15T11:56:34.450Z,2.40
2023-04-15T11:59:11.254Z,2.50
2023-04-15T12:01:48.487Z,2.40
2023-04-15T12:04:26.086Z,2.70
2023-04-15T12:07:10.128Z,2.10
2023-04-15T12:09:57.634Z,2.70
2023-04-15T12:12:36.526Z,2.00
2023-04-15T12:15:18.040Z,1.90
2023-04-15T12:17:56.400Z,2.00
2023-04-15T12:20:35.776Z,1.90
2023-04-15T12:23:15.941Z,1.80
2023-04-15T12:25:55.938Z,2.20
2023-04-15T12:28:37.160Z,2.10
2023-04-15T12:31:17.171Z,2.50
2023-04-15T12:33:57.413Z,2.40
2023-04-15T12:36:37.770Z,3.10
2023-04-15T12:39:14.717Z,2.60
2023-04-15T12:41:51.575Z,2.70
2023-04-15T12:44:30.585Z,2.40
2023-04-15T12:47:07.680Z,2.30
2023-04-15T12:49:45.276Z,3.20
2023-04-15T12:52:22.119Z,3.10
2023-04-15T12:54:59.548Z,3.20
2023-04-15T12:57:36.713Z,3.10
2023-04-15T13:00:22.204Z,2.80
2023-04-15T13:02:59.232Z,2.40
2023-04-15T13:05:37.511Z,2.90
2023-04-15T13:08:15.346Z,2.50
2023-04-15T13:10:53.529Z,2.50
2023-04-15T13:13:32.044Z,2.00
2023-04-15T13:16:10.808Z,2.20
2023-04-15T13:18:50.020Z,2.30
2023-04-15T13:21:28.203Z,2.80
2023-04-15T13:24:05.384Z,3.00
2023-04-15T13:26:41.804Z,2.70
2023-04-15T13:29:19.264Z,2.70
2023-04-15T13:31:55.815Z,3.10
2023-04-15T13:34:32.343Z,3.10
2023-04-15T13:37:14.205Z,2.50
2023-04-15T13:39:50.769Z,2.40
2023-04-15T13:42:27.499Z,1.90
2023-04-15T13:45:03.992Z,1.80
2023-04-15T13:47:40.787Z,2.40
2023-04-15T13:50:20.175Z,2.20
2023-04-15T13:52:57.945Z,2.40
2023-04-15T13:55:35.721Z,2.10
2023-04-15T13:58:12.408Z,2.60
2023-04-15T14:00:48.974Z,2.10
2023-04-15T14:03:26.769Z,2.20
2023-04-15T14:06:04.051Z,2.00
2023-04-15T14:08:41.658Z,2.20
2023-04-15T14:11:18.130Z,2.30
2023-04-15T14:13:55.859Z,2.60
2023-04-15T14:16:33.062Z,2.30
2023-04-15T14:19:09.489Z,2.40
2023-04-15T14:21:47.224Z,1.50
2023-04-15T14:24:24.778Z,1.60
2023-04-15T14:27:02.900Z,1.90
2023-04-15T14:29:40.013Z,1.80
2023-04-15T14:32:17.353Z,1.30
2023-04-15T14:34:54.505Z,1.80
2023-04-15T14:37:30.948Z,1.70
2023-04-15T14:40:11.050Z,1.60
2023-04-15T14:42:49.422Z,1.90
2023-04-15T14:45:27.348Z,1.80
2023-04-15T14:48:07.536Z,2.00
2023-04-15T14:50:45.754Z,1.60
2023-04-15T14:53:22.712Z,1.30
2023-04-15T14:56:00.051Z,1.40
2023-04-15T14:58:36.952Z,1.80
2023-04-15T15:01:14.419Z,2.10
2023-04-15T15:03:51.831Z,1.80
2023-04-15T15:06:31.115Z,1.90
2023-04-15T15:09:08.069Z,1.40
2023-04-15T15:11:45.436Z,1.80
2023-04-15T15:14:25.249Z,1.60
2023-04-15T15:17:01.503Z,1.40
2023-04-15T15:19:37.924Z,1.40
2023-04-15T15:22:14.549Z,1.30
2023-04-15T15:24:50.105Z,1.00
2023-04-15T15:27:26.779Z,1.30
2023-04-15T15:30:04.157Z,1.10
2023-04-15T15:32:44.366Z,1.30
2023-04-15T15:35:22.975Z,1.30
2023-04-15T15:38:00.673Z,1.50
2023-04-15T15:40:37.359Z,1.50
2023-04-15T15:43:14.107Z,1.70
2023-04-15T15:45:51.822Z,1.70
2023-04-15T15:48:29.724Z,1.60
2023-04-15T15:51:06.519Z,1.90
2023-04-15T15:53:42.804Z,1.70
2023-04-15T15:56:19.374Z,1.60
2023-04-15T15:58:55.049Z,1.40
2023-04-15T16:01:32.451Z,1.40
2023-04-15T16:04:10.074Z,1.50
2023-04-15T16:06:47.393Z,1.30
2023-04-15T16:09:23.850Z,1.50
2023-04-15T16:12:00.496Z,1.30
2023-04-15T16:14:37.914Z,1.30
2023-04-15T16:17:13.800Z,1.20
2023-04-15T16:19:55.592Z,1.40
2023-04-15T16:22:39.082Z,1.30
2023-04-15T16:25:16.653Z,3.00
2023-04-15T16:28:00.899Z,3.40
2023-04-15T16:30:43.487Z,4.10
2023-04-15T16:33:20.729Z,2.90
2023-04-15T16:35:56.537Z,2.00
2023-04-15T16:38:31.796Z,1.80
2023-04-15T16:41:09.198Z,2.10
2023-04-15T16:43:46.646Z,2.00
2023-04-15T16:46:24.460Z,2.50
2023-04-15T16:49:01.234Z,2.70
2023-04-15T16:51:37.960Z,2.70
2023-04-15T16:54:14.509Z,2.40
2023-04-15T16:57:03.671Z,2.30
2023-04-15T16:59:44.645Z,2.30
2023-04-15T17:02:23.544Z,2.70
2023-04-15T17:05:00.056Z,2.20
2023-04-15T17:07:40.668Z,2.80
2023-04-15T17:10:21.104Z,6.10
2023-04-15T17:12:58.447Z,5.30
2023-04-15T17:15:35.520Z,3.30
2023-04-15T17:18:12.295Z,3.10
2023-04-15T17:20:49.185Z,2.50
2023-04-15T17:23:25.987Z,3.50
2023-04-15T17:26:03.652Z,2.40
2023-04-15T17:28:41.266Z,3.00
2023-04-15T17:31:17.440Z,1.80
2023-04-15T17:34:02.036Z,1.90
2023-04-15T17:36:47.864Z,2.10
2023-04-15T17:39:25.770Z,2.40
2023-04-15T17:42:04.201Z,2.00
2023-04-15T17:44:41.250Z,2.30
2023-04-15T17:47:18.380Z,2.00
2023-04-15T17:49:54.887Z,2.20
2023-04-15T17:52:32.216Z,1.90
2023-04-15T17:55:11.713Z,2.20
2023-04-15T17:57:49.256Z,2.00
2023-04-15T18:00:26.376Z,2.00
2023-04-15T18:03:02.886Z,2.10
2023-04-15T18:05:42.411Z,2.10
2023-04-15T18:08:19.076Z,1.80
2023-04-15T18:10:56.073Z,1.60
2023-04-15T18:13:33.295Z,2.20
2023-04-15T18:16:11.981Z,1.80
2023-04-15T18:18:48.161Z,1.90
2023-04-15T18:21:25.483Z,1.70
2023-04-15T18:24:00.799Z,2.30
2023-04-15T18:26:38.136Z,2.00
2023-04-15T18:29:15.009Z,1.70
2023-04-15T18:31:51.916Z,2.10
2023-04-15T18:34:28.514Z,2.00
2023-04-15T18:37:05.639Z,1.80
2023-04-15T18:39:42.377Z,1.90
2023-04-15T18:42:19.061Z,1.60
2023-04-15T18:44:55.690Z,1.40
2023-04-15T18:47:33.043Z,1.60
2023-04-15T18:50:12.179Z,1.90
2023-04-15T18:52:49.079Z,1.90
2023-04-15T18:55:27.784Z,1.60
2023-04-15T18:58:08.960Z,1.60
2023-04-15T19:00:46.346Z,1.90
2023-04-15T19:03:22.318Z,1.70
2023-04-15T19:05:59.281Z,1.80
2023-04-15T19:08:36.000Z,1.60
2023-04-15T19:11:13.722Z,1.80
2023-04-15T19:13:50.227Z,1.60
2023-04-15T19:16:26.539Z,1.50
2023-04-15T19:19:03.059Z,1.60
2023-04-15T19:21:40.156Z,1.70
2023-04-15T19:24:17.932Z,2.00
2023-04-15T19:26:57.325Z,1.80
2023-04-15T19:29:35.106Z,1.60
2023-04-15T19:32:14.244Z,1.90
2023-04-15T19:34:51.069Z,1.80
2023-04-15T19:37:28.592Z,1.90
2023-04-15T19:40:05.721Z,1.70
2023-04-15T19:42:43.287Z,1.50
2023-04-15T19:45:21.300Z,1.70
2023-04-15T19:47:58.489Z,1.50
2023-04-15T19:50:34.986Z,1.60
2023-04-15T19:53:11.920Z,1.60
2023-04-15T19:55:49.242Z,1.60
2023-04-15T19:58:26.260Z,1.90
2023-04-15T20:01:05.196Z,1.80
2023-04-15T20:03:44.188Z,1.70
2023-04-15T20:06:22.659Z,1.60
2023-04-15T20:08:59.461Z,1.50
2023-04-15T20:12:09.988Z,1.80
2023-04-15T20:14:33.393Z,1.70
2023-04-15T20:17:10.923Z,1.60
2023-04-15T20:19:47.993Z,1.50
2023-04-15T20:22:24.522Z,1.90
2023-04-15T20:25:01.097Z,1.60
2023-04-15T20:27:37.102Z,1.30
2023-04-15T20:30:18.732Z,1.60
2023-04-15T20:32:56.176Z,1.50
2023-04-15T20:35:33.366Z,1.40
2023-04-15T20:38:09.460Z,1.30
2023-04-15T20:40:45.752Z,1.30
2023-04-15T20:43:24.245Z,1.30
2023-04-15T20:46:07.056Z,1.50
2023-04-15T20:48:54.562Z,1.40
2023-04-15T20:51:37.731Z,1.60
2023-04-15T20:54:14.788Z,1.40
2023-04-15T20:56:52.382Z,1.30
2023-04-15T20:59:28.870Z,1.50
2023-04-15T21:02:06.223Z,1.30
2023-04-15T21:04:43.643Z,1.40
2023-04-15T21:07:20.288Z,1.30
2023-04-15T21:09:57.925Z,1.60
2023-04-15T21:12:34.877Z,1.10
2023-04-15T21:15:14.727Z,1.30
2023-04-15T21:17:51.400Z,1.20
2023-04-15T21:20:29.300Z,1.30
2023-04-15T21:23:05.765Z,1.20
2023-04-15T21:25:42.436Z,1.30
2023-04-15T21:28:19.751Z,1.20
2023-04-15T21:30:56.011Z,1.40
2023-04-15T21:33:33.388Z,1.20
2023-04-15T21:36:11.525Z,1.50
2023-04-15T21:38:51.583Z,1.10
2023-04-15T21:41:28.438Z,1.20
2023-04-15T21:44:08.925Z,1.10
2023-04-15T21:46:46.423Z,1.50
2023-04-15T21:49:25.354Z,1.10
2023-04-15T21:52:04.789Z,1.40
2023-04-15T21:54:40.795Z,1.40
2023-04-15T21:57:19.627Z,1.40
2023-04-15T21:59:55.531Z,1.40
2023-04-15T22:02:33.399Z,1.50
2023-04-15T22:05:11.053Z,1.70
2023-04-15T22:07:48.027Z,1.20
2023-04-15T22:10:25.718Z,1.80
2023-04-15T22:13:04.460Z,1.20
2023-04-15T22:15:42.302Z,1.40
2023-04-15T22:18:19.540Z,1.40
2023-04-15T22:20:56.420Z,1.40
2023-04-15T22:23:33.617Z,1.30
2023-04-15T22:26:12.602Z,1.50
2023-04-15T22:28:49.804Z,1.20
2023-04-15T22:31:26.845Z,1.30
2023-04-15T22:34:03.996Z,1.50
2023-04-15T22:36:40.761Z,1.50
2023-04-15T22:39:16.956Z,1.50
2023-04-15T22:41:53.972Z,1.30
2023-04-15T22:44:30.909Z,1.50
2023-04-15T22:47:07.867Z,1.50
2023-04-15T22:49:45.010Z,1.50
2023-04-15T22:52:29.947Z,1.20
2023-04-15T22:55:06.997Z,1.40
2023-04-15T22:57:42.901Z,1.30
2023-04-15T23:00:22.457Z,1.40
2023-04-15T23:03:00.231Z,1.40
2023-04-15T23:05:38.744Z,1.50
2023-04-15T23:08:15.671Z,1.50
2023-04-15T23:10:52.855Z,1.50
2023-04-15T23:13:30.380Z,1.50
2023-04-15T23:16:08.130Z,1.50
2023-04-15T23:18:45.638Z,1.20
2023-04-15T23:21:25.495Z,1.40
2023-04-15T23:24:02.782Z,1.10
2023-04-15T23:26:39.700Z,1.30
2023-04-15T23:29:18.237Z,1.50
2023-04-15T23:31:55.025Z,1.40
2023-04-15T23:34:31.937Z,1.20
2023-04-15T23:37:08.851Z,1.30
2023-04-15T23:39:45.357Z,1.20
2023-04-15T23:42:23.022Z,1.70
2023-04-15T23:44:59.308Z,1.30
2023-04-15T23:47:41.604Z,1.50
2023-04-15T23:50:19.198Z,1.60
2023-04-15T23:52:56.834Z,1.70
2023-04-15T23:55:34.483Z,1.60
2023-04-15T23:58:11.149Z,1.20
